Time;durP1;ratioP1;P1;durP2;ratioP2;P2;SDS_P1;SDS_P2;PMS_P1;PMS_P2;Temp;Humidity;BMP_temperature;BMP_pressure;BME280_temperature;BME280_humidity;BME280_pressure;Samples;Min_cycle;Max_cycle;Signal;HPM_P1;HPM_P2
2023/07/04 00:01:56;;;;;;;9.10;3.47;;;15.70;99.90;;;;;;4155395;28;21836;-74
2023/07/04 00:03:58;;;;;;;10.27;3.57;;;15.70;99.90;;;;;;4152938;28;20240;-74
2023/07/04 00:06:01;;;;;;;9.23;3.50;;;15.70;99.90;;;;;;4154901;28;20231;-74
2023/07/04 00:08:04;;;;;;;8.37;3.40;;;15.70;99.90;;;;;;4155982;28;20205;-74
2023/07/04 00:10:07;;;;;;;6.40;3.07;;;15.70;99.90;;;;;;4156002;28;20217;-74
2023/07/04 00:12:09;;;;;;;6.77;2.80;;;15.70;99.90;;;;;;4151806;28;20732;-74
2023/07/04 00:14:11;;;;;;;7.37;3.00;;;15.70;99.90;;;;;;4155330;28;20259;-74
2023/07/04 00:16:15;;;;;;;8.23;3.27;;;15.70;99.90;;;;;;4155724;28;20257;-74
2023/07/04 00:18:20;;;;;;;10.30;3.17;;;15.60;99.90;;;;;;4151768;28;20233;-74
2023/07/04 00:20:22;;;;;;;6.43;3.10;;;15.60;99.90;;;;;;4155273;28;20257;-74
2023/07/04 00:22:24;;;;;;;6.77;3.10;;;15.60;99.90;;;;;;4152943;28;20773;-74
2023/07/04 00:24:26;;;;;;;9.27;3.20;;;15.60;99.90;;;;;;4155786;28;20210;-74
2023/07/04 00:26:29;;;;;;;13.50;3.20;;;15.60;99.90;;;;;;4152876;28;20318;-74
2023/07/04 00:28:33;;;;;;;8.53;2.80;;;15.60;99.90;;;;;;4153708;28;20683;-74
2023/07/04 00:30:35;;;;;;;10.73;3.43;;;15.60;99.90;;;;;;4155242;28;20270;-74
2023/07/04 00:32:37;;;;;;;5.00;2.97;;;15.60;99.90;;;;;;4151025;28;20283;-74
2023/07/04 00:34:40;;;;;;;10.63;3.40;;;15.60;99.90;;;;;;4155179;28;20211;-74
2023/07/04 00:36:42;;;;;;;7.60;3.47;;;15.60;99.90;;;;;;4152972;28;20322;-74
2023/07/04 00:38:45;;;;;;;7.27;2.97;;;15.60;99.90;;;;;;4156575;28;20272;-74
2023/07/04 00:40:50;;;;;;;5.47;2.73;;;15.60;99.90;;;;;;4154347;28;20219;-74
2023/07/04 00:42:56;;;;;;;4.73;2.43;;;15.60;99.90;;;;;;4153876;28;20297;-74
2023/07/04 00:44:58;;;;;;;6.87;3.20;;;15.60;99.90;;;;;;4155439;28;20222;-74
2023/07/04 00:47:06;;;;;;;8.50;3.10;;;15.50;99.90;;;;;;4156977;28;20594;-74
2023/07/04 00:49:19;;;;;;;7.70;2.87;;;15.50;99.90;;;;;;4151615;28;20332;-74
2023/07/04 00:51:22;;;;;;;8.23;2.80;;;15.50;99.90;;;;;;4156597;28;20269;-74
2023/07/04 00:53:25;;;;;;;7.20;2.70;;;15.50;99.90;;;;;;4155038;28;20671;-74
2023/07/04 00:55:28;;;;;;;9.40;3.00;;;15.50;99.90;;;;;;4156871;28;20220;-74
2023/07/04 00:57:32;;;;;;;5.43;2.70;;;15.50;99.90;;;;;;4151096;28;20730;-74
2023/07/04 00:59:37;;;;;;;5.87;3.00;;;15.50;99.90;;;;;;4155473;28;20203;-74
2023/07/04 01:01:42;;;;;;;9.10;3.13;;;15.50;99.90;;;;;;4151903;28;20240;-74
2023/07/04 01:03:44;;;;;;;6.30;2.70;;;15.50;99.90;;;;;;4156387;28;20563;-74
2023/07/04 01:05:54;;;;;;;6.50;3.10;;;15.50;99.90;;;;;;4156330;28;20648;-74
2023/07/04 01:08:02;;;;;;;9.30;3.50;;;15.50;99.90;;;;;;4153943;28;20225;-74
2023/07/04 01:10:12;;;;;;;6.80;3.13;;;15.50;99.90;;;;;;4155369;28;20213;-74
2023/07/04 01:12:14;;;;;;;8.80;2.63;;;15.50;99.90;;;;;;4153399;28;20236;-74
2023/07/04 01:14:25;;;;;;;5.40;2.37;;;15.40;99.90;;;;;;4153047;28;20238;-74
2023/07/04 01:16:28;;;;;;;6.87;2.70;;;15.40;99.90;;;;;;4152477;28;20272;-74
2023/07/04 01:18:30;;;;;;;9.77;3.00;;;15.40;99.90;;;;;;4156429;28;20610;-74
2023/07/04 01:20:33;;;;;;;8.07;3.07;;;15.40;99.90;;;;;;4151938;28;20249;-74
2023/07/04 01:22:41;;;;;;;8.37;2.53;;;15.40;99.90;;;;;;4152327;28;20270;-74
2023/07/04 01:24:53;;;;;;;7.17;3.20;;;15.30;99.90;;;;;;4155801;28;20575;-74
2023/07/04 01:26:56;;;;;;;6.23;2.53;;;15.30;99.90;;;;;;4150721;28;20248;-74
2023/07/04 01:29:00;;;;;;;6.40;3.27;;;15.30;99.90;;;;;;4154416;28;20230;-74
2023/07/04 01:31:05;;;;;;;6.50;3.13;;;15.30;99.90;;;;;;4155837;28;20267;-74
2023/07/04 01:33:08;;;;;;;5.93;2.90;;;15.30;99.90;;;;;;4152587;28;20227;-74
2023/07/04 01:35:12;;;;;;;4.17;2.60;;;15.30;99.90;;;;;;4156048;28;20233;-74
2023/07/04 01:37:14;;;;;;;7.00;3.20;;;15.20;99.90;;;;;;4152726;28;20661;-74
2023/07/04 01:39:16;;;;;;;11.37;2.90;;;15.20;99.90;;;;;;4152727;28;20811;-74
2023/07/04 01:41:18;;;;;;;7.67;3.10;;;15.20;99.90;;;;;;4156326;28;20212;-74
2023/07/04 01:43:22;;;;;;;7.93;2.77;;;15.20;99.90;;;;;;4153251;28;20205;-74
2023/07/04 01:45:24;;;;;;;5.20;2.60;;;15.20;99.90;;;;;;4152751;28;20258;-74
2023/07/04 01:47:26;;;;;;;5.67;2.47;;;15.20;99.90;;;;;;4155241;28;20240;-74
2023/07/04 01:49:28;;;;;;;4.53;2.73;;;15.10;99.90;;;;;;4154013;28;20213;-74
2023/07/04 01:51:34;;;;;;;6.00;2.23;;;15.10;99.90;;;;;;4154728;28;20209;-74
2023/07/04 01:53:36;;;;;;;5.30;2.60;;;15.10;99.90;;;;;;4150947;28;20236;-74
2023/07/04 01:55:38;;;;;;;5.27;2.90;;;15.10;99.90;;;;;;4153424;28;20221;-74
2023/07/04 01:57:40;;;;;;;7.47;2.83;;;15.10;99.90;;;;;;4154941;28;20296;-74
2023/07/04 01:59:44;;;;;;;6.17;2.93;;;15.10;99.90;;;;;;4153177;28;20305;-74
2023/07/04 02:01:45;;;;;;;4.10;2.33;;;15.10;99.90;;;;;;4150756;28;20217;-74
2023/07/04 02:03:47;;;;;;;5.23;2.73;;;15.10;99.90;;;;;;4154577;28;20369;-74
2023/07/04 02:05:49;;;;;;;4.50;2.43;;;15.10;99.90;;;;;;4155909;28;20213;-74
2023/07/04 02:07:51;;;;;;;4.67;2.50;;;15.10;99.90;;;;;;4154804;28;20248;-74
2023/07/04 02:09:53;;;;;;;6.50;2.60;;;15.10;99.90;;;;;;4156345;28;20202;-74
2023/07/04 02:11:55;;;;;;;6.30;2.20;;;15.10;99.90;;;;;;4156553;28;20228;-74
2023/07/04 02:13:59;;;;;;;5.43;2.40;;;15.10;99.90;;;;;;4157927;28;20231;-74
2023/07/04 02:16:02;;;;;;;5.07;2.30;;;15.10;99.90;;;;;;4154013;28;20265;-74
2023/07/04 02:18:04;;;;;;;4.30;2.63;;;15.10;99.90;;;;;;4154851;28;20209;-74
2023/07/04 02:20:06;;;;;;;5.93;2.70;;;15.10;99.90;;;;;;4156460;28;20205;-74
2023/07/04 02:22:09;;;;;;;4.87;2.60;;;15.20;99.90;;;;;;4158925;28;20290;-74
2023/07/04 02:24:11;;;;;;;6.57;2.47;;;15.20;99.90;;;;;;4159442;28;20215;-74
2023/07/04 02:26:13;;;;;;;5.27;2.40;;;15.20;99.90;;;;;;4155906;28;20342;-74
2023/07/04 02:28:15;;;;;;;4.67;2.27;;;15.20;99.90;;;;;;4155441;28;20258;-74
2023/07/04 02:30:17;;;;;;;4.77;2.50;;;15.20;99.90;;;;;;4155451;28;20632;-74
2023/07/04 02:32:20;;;;;;;5.37;2.70;;;15.30;99.90;;;;;;4155115;28;20732;-74
2023/07/04 02:34:22;;;;;;;5.30;2.83;;;15.30;99.90;;;;;;4159087;28;20779;-74
2023/07/04 02:36:24;;;;;;;4.40;2.30;;;15.30;99.90;;;;;;4155137;28;20229;-74
2023/07/04 02:38:26;;;;;;;5.13;2.80;;;15.30;99.90;;;;;;4158201;28;20873;-74
2023/07/04 02:40:28;;;;;;;6.87;3.10;;;15.30;99.90;;;;;;4154410;28;20309;-74
2023/07/04 02:42:29;;;;;;;7.17;2.97;;;15.30;99.90;;;;;;4155160;28;20300;-74
2023/07/04 02:44:31;;;;;;;5.67;2.60;;;15.40;99.90;;;;;;4159877;28;20241;-74
2023/07/04 02:46:33;;;;;;;7.90;2.70;;;15.40;99.90;;;;;;4157043;28;20320;-74
2023/07/04 02:48:36;;;;;;;5.20;2.63;;;15.50;99.90;;;;;;4159433;28;20211;-74
2023/07/04 02:50:38;;;;;;;5.60;3.07;;;15.50;99.90;;;;;;4156810;28;20683;-74
2023/07/04 02:52:41;;;;;;;9.67;2.57;;;15.40;99.90;;;;;;4157439;28;20210;-74
2023/07/04 02:54:42;;;;;;;9.83;2.70;;;15.50;99.90;;;;;;4153505;28;20640;-74
2023/07/04 02:56:45;;;;;;;6.93;2.87;;;15.50;99.90;;;;;;4156953;28;20241;-74
2023/07/04 02:58:46;;;;;;;7.50;2.77;;;15.50;99.90;;;;;;4155645;28;20304;-74
2023/07/04 03:00:49;;;;;;;5.40;2.77;;;15.50;99.90;;;;;;4155124;28;20255;-74
2023/07/04 03:02:51;;;;;;;5.57;2.50;;;15.50;99.90;;;;;;4154138;28;20565;-74
2023/07/04 03:04:54;;;;;;;5.30;2.47;;;15.50;99.90;;;;;;4157238;28;20871;-74
2023/07/04 03:06:57;;;;;;;5.67;2.70;;;15.50;99.90;;;;;;4156642;28;20231;-74
2023/07/04 03:08:59;;;;;;;4.60;2.50;;;15.50;99.90;;;;;;4156248;28;20611;-74
2023/07/04 03:11:00;;;;;;;4.17;2.57;;;15.50;99.90;;;;;;4155597;28;20597;-74
2023/07/04 03:13:03;;;;;;;7.47;2.63;;;15.50;99.90;;;;;;4153509;28;20288;-74
2023/07/04 03:15:06;;;;;;;5.27;2.60;;;15.50;99.90;;;;;;4156069;28;20264;-74
2023/07/04 03:17:08;;;;;;;5.27;2.73;;;15.50;99.90;;;;;;4154483;28;20248;-74
2023/07/04 03:19:10;;;;;;;4.20;2.40;;;15.50;99.90;;;;;;4154685;28;20211;-74
2023/07/04 03:21:13;;;;;;;3.97;2.57;;;15.50;99.90;;;;;;4153508;28;20213;-74
2023/07/04 03:23:15;;;;;;;6.37;2.70;;;15.50;99.90;;;;;;4155432;28;20236;-74
2023/07/04 03:25:17;;;;;;;5.90;2.60;;;15.50;99.90;;;;;;4156496;28;20635;-74
2023/07/04 03:27:19;;;;;;;4.63;2.57;;;15.50;99.90;;;;;;4156177;28;20263;-74
2023/07/04 03:29:21;;;;;;;4.20;2.47;;;15.50;99.90;;;;;;4157055;28;20214;-74
2023/07/04 03:31:22;;;;;;;3.93;2.70;;;15.40;99.90;;;;;;4154886;28;20299;-74
2023/07/04 03:33:25;;;;;;;4.77;2.57;;;15.50;99.90;;;;;;4156790;28;20330;-72
2023/07/04 03:35:27;;;;;;;5.00;2.50;;;15.50;99.90;;;;;;4157389;28;20711;-74
2023/07/04 03:37:31;;;;;;;4.40;2.33;;;15.40;99.90;;;;;;4156316;28;20673;-74
2023/07/04 03:39:32;;;;;;;4.50;2.70;;;15.40;99.90;;;;;;4157372;28;20734;-74
2023/07/04 03:41:34;;;;;;;7.50;2.90;;;15.30;99.90;;;;;;4157379;28;20206;-74
2023/07/04 03:43:36;;;;;;;4.63;2.90;;;15.40;99.90;;;;;;4155444;28;20711;-74
2023/07/04 03:45:38;;;;;;;5.20;2.93;;;15.40;99.90;;;;;;4154018;28;20202;-74
2023/07/04 03:47:40;;;;;;;4.27;2.40;;;15.40;99.90;;;;;;4156936;28;20300;-74
2023/07/04 03:49:42;;;;;;;6.50;2.67;;;15.40;99.90;;;;;;4151236;28;20217;-74
2023/07/04 03:51:44;;;;;;;5.77;2.70;;;15.40;99.90;;;;;;4153079;28;20206;-74
2023/07/04 03:53:48;;;;;;;5.97;3.07;;;15.40;99.90;;;;;;4156962;28;20593;-74
2023/07/04 03:55:51;;;;;;;4.77;2.80;;;15.40;99.90;;;;;;4153254;28;20220;-74
2023/07/04 03:57:53;;;;;;;4.63;2.87;;;15.40;99.90;;;;;;4159192;28;20565;-74
2023/07/04 03:59:54;;;;;;;7.03;3.00;;;15.40;99.90;;;;;;4156674;28;20216;-74
2023/07/04 04:01:56;;;;;;;6.77;2.63;;;15.50;99.90;;;;;;4155981;28;20655;-74
2023/07/04 04:03:58;;;;;;;7.57;3.10;;;15.50;99.90;;;;;;4160593;28;20199;-74
2023/07/04 04:06:00;;;;;;;6.17;2.90;;;15.40;99.90;;;;;;4159207;28;20336;-74
2023/07/04 04:08:02;;;;;;;9.60;3.00;;;15.50;99.90;;;;;;4156540;28;20662;-74
2023/07/04 04:10:06;;;;;;;8.73;2.50;;;15.50;99.90;;;;;;4157458;28;20222;-74
2023/07/04 04:12:09;;;;;;;4.57;2.73;;;15.50;99.90;;;;;;4154851;28;20297;-74
2023/07/04 04:14:11;;;;;;;6.63;2.90;;;15.50;99.90;;;;;;4156856;28;20230;-72
2023/07/04 04:16:13;;;;;;;5.00;2.70;;;15.50;99.90;;;;;;4157292;28;20317;-74
2023/07/04 04:18:15;;;;;;;10.30;3.20;;;15.50;99.90;;;;;;4153883;28;20197;-74
2023/07/04 04:20:17;;;;;;;5.57;2.80;;;15.60;99.90;;;;;;4153415;28;20212;-74
2023/07/04 04:22:19;;;;;;;4.53;2.47;;;15.60;99.90;;;;;;4153519;28;20213;-74
2023/07/04 04:24:21;;;;;;;7.57;3.40;;;15.60;99.90;;;;;;4154826;28;20211;-74
2023/07/04 04:26:24;;;;;;;7.20;3.30;;;15.60;99.90;;;;;;4154350;28;20227;-74
2023/07/04 04:28:26;;;;;;;6.63;3.27;;;15.60;99.90;;;;;;4152911;28;20309;-74
2023/07/04 04:30:28;;;;;;;5.50;3.20;;;15.70;99.90;;;;;;4156496;28;20209;-74
2023/07/04 04:32:30;;;;;;;7.30;3.07;;;15.60;99.90;;;;;;4155469;28;20210;-74
2023/07/04 04:34:32;;;;;;;6.17;2.80;;;15.70;99.90;;;;;;4154863;28;20743;-74
2023/07/04 04:36:34;;;;;;;5.20;2.80;;;15.70;99.90;;;;;;4153273;28;20317;-74
2023/07/04 04:38:36;;;;;;;8.40;3.83;;;15.70;99.90;;;;;;4155022;28;20286;-74
2023/07/04 04:40:38;;;;;;;6.47;3.60;;;15.70;99.90;;;;;;4159793;28;20203;-74
2023/07/04 04:42:43;;;;;;;7.50;3.10;;;15.70;99.90;;;;;;4160142;28;20245;-74
2023/07/04 04:44:45;;;;;;;7.57;3.53;;;15.80;99.90;;;;;;4154860;28;20211;-74
2023/07/04 04:46:48;;;;;;;6.60;2.97;;;15.80;99.90;;;;;;4155765;28;20849;-74
2023/07/04 04:48:51;;;;;;;7.37;3.20;;;15.80;99.90;;;;;;4153131;28;20547;-74
2023/07/04 04:50:53;;;;;;;12.53;3.50;;;15.80;99.90;;;;;;4162147;28;20716;-74
2023/07/04 04:52:54;;;;;;;6.50;3.13;;;15.80;99.90;;;;;;4159934;28;20899;-73
2023/07/04 04:54:56;;;;;;;8.10;2.93;;;15.90;99.90;;;;;;4153448;28;20311;-73
2023/07/04 04:56:58;;;;;;;7.53;3.43;;;15.90;99.90;;;;;;4154063;28;20231;-74
2023/07/04 04:59:03;;;;;;;6.67;3.40;;;15.90;99.90;;;;;;4155065;28;20661;-73
2023/07/04 05:01:15;;;;;;;8.30;3.70;;;16.00;99.90;;;;;;4155335;28;20250;-74
2023/07/04 05:03:16;;;;;;;7.03;3.40;;;16.00;99.90;;;;;;4159826;28;20218;-75
2023/07/04 05:05:18;;;;;;;8.37;3.27;;;16.10;99.90;;;;;;4153723;28;20215;-74
2023/07/04 05:07:23;;;;;;;6.83;3.57;;;16.10;99.90;;;;;;4153840;28;20234;-74
2023/07/04 05:09:25;;;;;;;8.27;3.30;;;16.20;99.90;;;;;;4156373;28;20235;-74
2023/07/04 05:11:27;;;;;;;6.53;3.13;;;16.20;99.90;;;;;;4154063;28;20696;-74
2023/07/04 05:13:29;;;;;;;8.90;3.50;;;16.20;99.90;;;;;;4151355;28;20229;-74
2023/07/04 05:15:33;;;;;;;7.53;3.30;;;16.30;99.90;;;;;;4153935;28;20698;-74
2023/07/04 05:17:35;;;;;;;6.33;3.03;;;16.40;99.90;;;;;;4152863;28;20247;-74
2023/07/04 05:19:40;;;;;;;8.60;3.13;;;16.40;99.90;;;;;;4147886;28;20683;-73
2023/07/04 05:21:42;;;;;;;8.60;3.10;;;16.40;99.90;;;;;;4155256;28;20215;-74
2023/07/04 05:23:45;;;;;;;6.43;2.93;;;16.50;99.90;;;;;;4152426;28;20211;-73
2023/07/04 05:25:47;;;;;;;6.83;3.13;;;16.50;99.90;;;;;;4155845;28;20214;-74
2023/07/04 05:27:51;;;;;;;8.10;3.60;;;16.60;99.90;;;;;;4156804;28;20589;-74
2023/07/04 05:29:53;;;;;;;9.33;3.50;;;16.60;99.90;;;;;;4161415;28;21645;-73
2023/07/04 05:31:57;;;;;;;8.57;4.20;;;16.60;99.90;;;;;;4144718;28;20246;-73
2023/07/04 05:33:59;;;;;;;9.63;3.80;;;16.70;99.90;;;;;;4151910;28;20396;-73
2023/07/04 05:36:06;;;;;;;8.27;3.23;;;16.70;99.90;;;;;;4155565;28;20227;-74
2023/07/04 05:38:08;;;;;;;10.57;3.20;;;16.70;99.90;;;;;;4152989;28;20211;-74
2023/07/04 05:40:10;;;;;;;10.80;3.37;;;16.80;99.90;;;;;;4154426;28;20290;-74
2023/07/04 05:42:12;;;;;;;16.17;3.67;;;16.80;99.90;;;;;;4159542;28;20661;-74
2023/07/04 05:44:14;;;;;;;13.53;3.77;;;16.90;99.90;;;;;;4160167;28;20207;-74
2023/07/04 05:46:18;;;;;;;5.00;2.83;;;16.90;99.90;;;;;;4152695;28;20716;-73
2023/07/04 05:48:22;;;;;;;8.03;3.13;;;16.90;99.90;;;;;;4158230;28;20294;-74
2023/07/04 05:50:24;;;;;;;7.10;3.33;;;16.90;99.90;;;;;;4159798;28;20238;-74
2023/07/04 05:52:26;;;;;;;10.13;3.30;;;17.00;99.90;;;;;;4155451;28;20215;-74
2023/07/04 05:54:27;;;;;;;8.13;3.47;;;17.00;99.90;;;;;;4155455;28;20694;-74
2023/07/04 05:56:33;;;;;;;9.97;3.50;;;17.10;99.90;;;;;;4156448;28;20313;-74
2023/07/04 05:58:35;;;;;;;10.37;3.30;;;17.20;99.90;;;;;;4156453;28;20387;-74
2023/07/04 06:00:37;;;;;;;8.80;3.43;;;17.30;99.90;;;;;;4159348;28;20203;-73
2023/07/04 06:02:39;;;;;;;8.70;3.60;;;17.40;99.90;;;;;;4158748;28;20311;-74
2023/07/04 06:04:43;;;;;;;10.73;3.37;;;17.40;99.90;;;;;;4157190;28;20285;-74
2023/07/04 06:06:49;;;;;;;8.13;3.57;;;17.50;99.90;;;;;;4156213;28;20236;-74
2023/07/04 06:08:54;;;;;;;5.93;2.93;;;17.50;99.90;;;;;;4154806;28;20789;-73
2023/07/04 06:11:00;;;;;;;9.63;3.83;;;17.60;99.90;;;;;;4158334;28;20287;-74
2023/07/04 06:13:02;;;;;;;8.40;3.43;;;17.60;99.90;;;;;;4157025;28;20212;-74
2023/07/04 06:15:05;;;;;;;9.93;3.87;;;17.70;99.90;;;;;;4158206;28;20212;-74
2023/07/04 06:17:07;;;;;;;8.57;3.07;;;17.70;99.90;;;;;;4154511;28;20236;-74
2023/07/04 06:19:09;;;;;;;9.97;2.90;;;17.80;99.90;;;;;;4155086;28;20236;-74
2023/07/04 06:21:13;;;;;;;9.53;3.50;;;17.80;99.90;;;;;;4157900;28;20209;-74
2023/07/04 06:23:16;;;;;;;10.10;3.63;;;17.90;99.90;;;;;;4156431;28;20407;-74
2023/07/04 06:25:17;;;;;;;7.67;3.30;;;17.90;99.90;;;;;;4157185;28;20213;-74
2023/07/04 06:27:19;;;;;;;8.73;3.30;;;17.90;99.90;;;;;;4157324;28;20233;-73
2023/07/04 06:29:21;;;;;;;9.47;3.00;;;18.00;99.90;;;;;;4156308;28;20215;-74
2023/07/04 06:31:23;;;;;;;7.57;2.93;;;18.00;99.90;;;;;;4153690;28;20213;-74
2023/07/04 06:33:26;;;;;;;8.97;2.97;;;18.10;99.90;;;;;;4154935;28;20312;-74
2023/07/04 06:35:28;;;;;;;7.87;3.10;;;18.20;99.90;;;;;;4157856;28;21406;-74
2023/07/04 06:37:31;;;;;;;8.60;3.13;;;18.20;99.90;;;;;;4157166;28;20224;-74
2023/07/04 06:39:33;;;;;;;11.00;3.43;;;18.20;99.90;;;;;;4157121;28;20635;-74
2023/07/04 06:41:35;;;;;;;7.03;3.07;;;18.30;99.90;;;;;;4154410;28;20258;-74
2023/07/04 06:43:38;;;;;;;7.93;3.30;;;18.30;99.90;;;;;;4158224;28;20224;-74
2023/07/04 06:45:44;;;;;;;8.90;3.60;;;18.40;99.90;;;;;;4159173;28;20208;-74
2023/07/04 06:47:46;;;;;;;10.90;3.30;;;18.50;99.90;;;;;;4153524;28;20209;-74
2023/07/04 06:49:48;;;;;;;7.33;3.47;;;18.60;99.90;;;;;;4155324;28;20218;-74
2023/07/04 06:51:50;;;;;;;7.23;3.30;;;18.60;99.90;;;;;;4154302;28;20325;-74
2023/07/04 06:53:53;;;;;;;7.97;2.90;;;18.70;99.90;;;;;;4157301;28;20215;-74
2023/07/04 06:56:04;;;;;;;10.13;3.03;;;18.70;99.90;;;;;;4152751;28;20723;-74
2023/07/04 06:58:07;;;;;;;8.67;3.33;;;18.80;99.90;;;;;;4158165;28;20215;-74
2023/07/04 07:00:10;;;;;;;8.60;3.23;;;18.80;99.90;;;;;;4157594;28;20220;-75
2023/07/04 07:02:13;;;;;;;7.93;3.07;;;18.90;99.90;;;;;;4159260;28;20304;-75
2023/07/04 07:04:16;;;;;;;10.37;2.80;;;18.90;99.90;;;;;;4157951;28;20556;-73
2023/07/04 07:06:21;;;;;;;6.43;2.77;;;19.00;99.90;;;;;;4156938;28;20228;-73
2023/07/04 07:08:23;;;;;;;10.20;2.90;;;19.00;99.90;;;;;;4157554;28;20213;-74
2023/07/04 07:10:27;;;;;;;7.87;3.00;;;19.00;99.90;;;;;;4162684;28;20218;-75
2023/07/04 07:12:30;;;;;;;9.33;3.10;;;19.00;99.90;;;;;;4155300;28;20332;-74
2023/07/04 07:14:32;;;;;;;8.80;3.20;;;19.00;99.90;;;;;;4154778;28;20214;-74
2023/07/04 07:16:34;;;;;;;6.20;2.70;;;19.00;99.90;;;;;;4156895;28;20236;-73
2023/07/04 07:18:37;;;;;;;7.77;3.50;;;19.10;99.90;;;;;;4159327;28;20730;-72
2023/07/04 07:20:39;;;;;;;7.73;3.00;;;19.10;99.90;;;;;;4157903;28;20244;-73
2023/07/04 07:22:41;;;;;;;9.13;2.87;;;19.10;99.90;;;;;;4156584;28;20644;-73
2023/07/04 07:24:43;;;;;;;9.20;3.07;;;19.20;99.90;;;;;;4159942;28;20282;-73
2023/07/04 07:26:46;;;;;;;7.53;3.07;;;19.30;99.90;;;;;;4156131;28;20289;-73
2023/07/04 07:28:48;;;;;;;10.37;2.90;;;19.30;99.90;;;;;;4160257;28;20301;-73
2023/07/04 07:31:01;;;;;;;6.70;2.60;;;19.40;99.90;;;;;;4156624;28;20592;-73
2023/07/04 07:33:02;;;;;;;12.33;3.00;;;19.50;99.90;;;;;;4155925;28;20453;-73
2023/07/04 07:35:05;;;;;;;5.67;2.93;;;19.50;99.90;;;;;;4156361;28;20222;-73
2023/07/04 07:37:09;;;;;;;13.87;3.47;;;19.60;99.90;;;;;;4156232;28;20231;-73
2023/07/04 07:39:13;;;;;;;9.13;3.27;;;19.60;99.90;;;;;;4152396;28;20273;-73
2023/07/04 07:41:15;;;;;;;5.37;2.50;;;19.50;99.90;;;;;;4154868;28;20218;-73
2023/07/04 07:43:18;;;;;;;7.00;2.70;;;19.50;99.90;;;;;;4154772;28;20210;-73
2023/07/04 07:45:20;;;;;;;8.17;2.90;;;19.50;99.90;;;;;;4157309;28;20201;-73
2023/07/04 07:47:22;;;;;;;9.13;2.67;;;19.50;99.90;;;;;;4157144;28;20237;-73
2023/07/04 07:49:24;;;;;;;12.03;3.30;;;19.50;99.90;;;;;;4156753;28;20208;-73
2023/07/04 07:51:26;;;;;;;11.77;2.90;;;19.50;99.90;;;;;;4154120;28;20221;-73
2023/07/04 07:53:29;;;;;;;7.13;3.20;;;19.50;99.90;;;;;;4156199;28;20210;-73
2023/07/04 07:55:30;;;;;;;11.30;3.00;;;19.60;99.90;;;;;;4153787;28;20284;-73
2023/07/04 07:57:32;;;;;;;7.97;2.77;;;19.60;99.90;;;;;;4156182;28;20223;-73
2023/07/04 07:59:36;;;;;;;7.20;3.10;;;19.60;99.90;;;;;;4156193;28;20208;-74
2023/07/04 08:01:38;;;;;;;8.07;3.13;;;19.70;99.90;;;;;;4156291;28;20243;-74
2023/07/04 08:03:40;;;;;;;7.30;3.20;;;19.70;99.90;;;;;;4155948;28;20207;-73
2023/07/04 08:05:43;;;;;;;9.27;3.23;;;19.70;99.90;;;;;;4154934;28;20203;-74
2023/07/04 08:07:45;;;;;;;6.77;2.97;;;19.80;99.90;;;;;;4158929;28;20309;-74
2023/07/04 08:09:46;;;;;;;8.57;3.00;;;19.80;99.90;;;;;;4156333;28;20250;-74
2023/07/04 08:11:49;;;;;;;6.33;3.13;;;19.90;99.90;;;;;;4160461;28;20720;-74
2023/07/04 08:13:51;;;;;;;9.00;3.07;;;19.90;99.90;;;;;;4160111;28;20301;-74
2023/07/04 08:15:55;;;;;;;9.17;2.90;;;19.90;99.90;;;;;;4156980;28;20248;-74
2023/07/04 08:17:57;;;;;;;6.43;2.67;;;19.90;99.90;;;;;;4157332;28;20212;-74
2023/07/04 08:19:59;;;;;;;5.80;2.73;;;20.00;99.90;;;;;;4157700;28;20210;-74
2023/07/04 08:22:01;;;;;;;6.80;2.83;;;20.00;99.90;;;;;;4156847;28;20218;-74
2023/07/04 08:24:10;;;;;;;6.47;2.77;;;20.00;99.90;;;;;;4156212;28;20218;-74
2023/07/04 08:26:16;;;;;;;12.23;2.80;;;20.00;99.90;;;;;;4155225;28;20225;-73
2023/07/04 08:28:18;;;;;;;10.50;3.77;;;20.10;99.90;;;;;;4152855;28;20237;-73
2023/07/04 08:30:21;;;;;;;11.33;3.23;;;20.10;99.90;;;;;;4156282;28;20245;-73
2023/07/04 08:32:24;;;;;;;11.77;4.87;;;20.20;99.90;;;;;;4154836;28;20215;-73
2023/07/04 08:34:26;;;;;;;19.77;8.00;;;20.30;99.90;;;;;;4154008;28;20202;-73
2023/07/04 08:36:28;;;;;;;17.70;3.80;;;20.30;99.90;;;;;;4156301;28;20743;-74
2023/07/04 08:38:30;;;;;;;16.03;6.30;;;20.40;99.90;;;;;;4153881;28;20208;-74
2023/07/04 08:40:33;;;;;;;8.10;4.40;;;20.40;99.90;;;;;;4156360;28;20303;-74
2023/07/04 08:42:39;;;;;;;11.60;4.87;;;20.50;99.90;;;;;;4154166;28;20302;-73
2023/07/04 08:44:45;;;;;;;13.00;5.40;;;20.50;99.90;;;;;;4153302;28;20241;-74
2023/07/04 08:46:50;;;;;;;14.23;5.40;;;20.60;99.90;;;;;;4158072;28;20317;-73
2023/07/04 08:48:54;;;;;;;8.63;3.87;;;20.70;99.90;;;;;;4152662;28;20301;-74
2023/07/04 08:50:58;;;;;;;6.90;2.93;;;20.80;99.90;;;;;;4160193;28;20219;-74
2023/07/04 08:53:08;;;;;;;7.23;3.03;;;20.90;99.90;;;;;;4155930;28;20254;-74
2023/07/04 08:55:13;;;;;;;8.33;3.37;;;21.00;99.90;;;;;;4155552;28;20268;-74
2023/07/04 08:57:24;;;;;;;6.83;2.63;;;21.10;99.90;;;;;;4155830;28;20227;-74
2023/07/04 08:59:38;;;;;;;9.43;3.07;;;21.20;99.90;;;;;;4155782;28;20211;-74
2023/07/04 09:02:01;;;;;;;11.97;2.77;;;21.20;99.90;;;;;;4155516;28;20207;-74
2023/07/04 09:04:15;;;;;;;9.57;3.00;;;21.20;99.90;;;;;;4154543;28;20238;-74
2023/07/04 09:06:28;;;;;;;5.87;2.43;;;21.10;99.90;;;;;;4155534;28;20215;-75
2023/07/04 09:08:42;;;;;;;8.13;3.03;;;21.20;99.90;;;;;;4159901;28;20650;-74
2023/07/04 09:10:47;;;;;;;7.70;2.87;;;21.20;98.30;;;;;;4153985;28;20658;-72
2023/07/04 09:12:50;;;;;;;6.87;2.57;;;21.30;99.90;;;;;;4155227;28;20207;-75
2023/07/04 09:14:57;;;;;;;6.53;3.00;;;21.30;99.90;;;;;;4154013;28;20313;-74
2023/07/04 09:17:05;;;;;;;8.03;3.20;;;21.40;97.80;;;;;;4151509;28;20234;-74
2023/07/04 09:19:10;;;;;;;6.57;3.00;;;21.40;93.80;;;;;;4153197;28;20623;-74
2023/07/04 09:21:15;;;;;;;8.23;3.13;;;21.40;93.40;;;;;;4156873;28;20218;-74
2023/07/04 09:23:21;;;;;;;6.83;3.03;;;21.40;92.70;;;;;;4153752;28;20218;-74
2023/07/04 09:25:24;;;;;;;4.77;2.73;;;21.40;92.00;;;;;;4153308;28;20607;-74
2023/07/04 09:27:26;;;;;;;11.03;3.30;;;21.50;93.20;;;;;;4156581;28;20712;-74
2023/07/04 09:29:28;;;;;;;6.97;2.70;;;21.50;92.90;;;;;;4157735;28;20652;-74
2023/07/04 09:31:33;;;;;;;7.27;3.23;;;21.50;93.40;;;;;;4154871;28;20580;-73
2023/07/04 09:33:37;;;;;;;5.87;2.70;;;21.70;92.90;;;;;;4153959;28;20216;-74
2023/07/04 09:35:41;;;;;;;6.70;2.53;;;21.70;80.40;;;;;;4153604;28;20605;-74
2023/07/04 09:37:59;;;;;;;7.53;3.03;;;21.80;85.00;;;;;;4156722;28;20631;-73
2023/07/04 09:40:03;;;;;;;6.53;2.50;;;21.90;79.80;;;;;;4153038;28;20321;-74
2023/07/04 09:42:07;;;;;;;4.93;2.47;;;21.90;77.40;;;;;;4159380;28;20278;-75
2023/07/04 09:44:15;;;;;;;8.73;2.90;;;22.00;76.20;;;;;;4150617;28;20247;-75
2023/07/04 09:46:25;;;;;;;8.43;2.70;;;22.00;75.30;;;;;;4157404;28;20259;-77
2023/07/04 09:48:26;;;;;;;7.87;3.20;;;22.00;75.40;;;;;;4155528;28;20292;-74
2023/07/04 09:50:31;;;;;;;9.83;2.53;;;22.10;72.00;;;;;;4153347;28;20238;-74
2023/07/04 09:52:35;;;;;;;4.97;2.60;;;22.20;70.50;;;;;;4151758;28;20237;-74
2023/07/04 09:54:38;;;;;;;7.10;3.00;;;22.20;69.90;;;;;;4153261;28;20686;-73
2023/07/04 09:56:41;;;;;;;5.47;2.87;;;22.20;67.30;;;;;;4152448;28;20239;-73
2023/07/04 09:58:44;;;;;;;6.47;2.80;;;22.20;66.80;;;;;;4154623;28;20224;-74
2023/07/04 10:01:00;;;;;;;7.73;3.07;;;22.30;67.80;;;;;;4155212;28;20253;-74
2023/07/04 10:03:08;;;;;;;8.23;2.93;;;22.40;66.80;;;;;;4156919;28;20263;-75
2023/07/04 10:05:14;;;;;;;7.33;3.10;;;22.40;67.30;;;;;;4153449;28;20220;-74
2023/07/04 10:07:19;;;;;;;6.87;3.60;;;22.40;68.40;;;;;;4156620;28;20226;-74
2023/07/04 10:09:23;;;;;;;8.10;3.60;;;22.60;65.20;;;;;;4158637;28;20221;-74
2023/07/04 10:11:26;;;;;;;6.10;3.20;;;22.70;61.70;;;;;;4156815;28;20210;-74
2023/07/04 10:13:39;;;;;;;6.93;3.00;;;22.80;62.20;;;;;;4159590;28;20310;-74
2023/07/04 10:15:43;;;;;;;5.77;2.67;;;22.80;61.50;;;;;;4158544;28;20246;-74
2023/07/04 10:17:45;;;;;;;5.70;2.83;;;22.90;61.10;;;;;;4157343;28;20247;-74
2023/07/04 10:19:49;;;;;;;7.23;3.00;;;22.90;59.10;;;;;;4151371;28;20303;-74
2023/07/04 10:21:53;;;;;;;9.07;3.20;;;23.00;59.30;;;;;;4151321;28;20657;-74
2023/07/04 10:23:55;;;;;;;6.47;3.00;;;23.00;59.00;;;;;;4151121;28;20612;-76
2023/07/04 10:26:01;;;;;;;7.67;3.37;;;23.10;58.20;;;;;;4154833;28;20767;-73
2023/07/04 10:28:13;;;;;;;7.70;3.83;;;23.10;58.90;;;;;;4154649;28;20250;-74
2023/07/04 10:30:19;;;;;;;6.27;3.40;;;23.20;55.10;;;;;;4157329;28;20217;-75
2023/07/04 10:32:23;;;;;;;7.20;3.70;;;23.20;53.00;;;;;;4156831;28;20251;-75
2023/07/04 10:34:26;;;;;;;8.93;3.40;;;23.40;51.50;;;;;;4155992;28;20216;-76
2023/07/04 10:36:32;;;;;;;6.00;3.30;;;23.40;51.60;;;;;;4158195;28;20235;-75
2023/07/04 10:38:40;;;;;;;7.17;3.40;;;23.50;52.90;;;;;;4158756;28;20214;-74
2023/07/04 10:40:44;;;;;;;7.80;3.27;;;23.50;51.70;;;;;;4155683;28;21923;-74
2023/07/04 10:43:01;;;;;;;7.83;3.87;;;23.60;50.50;;;;;;4158322;28;20210;-74